createdAt,value
2018-05-14T00:00:15.519Z,98.12
2018-05-14T00:01:15.385Z,97.97
2018-05-14T00:02:15.261Z,98.36
2018-05-14T00:03:15.135Z,97.64
2018-05-14T00:04:15.010Z,98.12
2018-05-14T00:05:14.881Z,98.22
2018-05-14T00:06:14.758Z,98.88
2018-05-14T00:07:14.632Z,98.79
2018-05-14T00:08:14.504Z,97.36
2018-05-14T00:09:14.379Z,98.69
2018-05-14T00:10:14.256Z,98.69
2018-05-14T00:11:14.132Z,98.41
2018-05-14T00:12:14.009Z,98.69
2018-05-14T00:13:13.883Z,98.79
2018-05-14T00:14:13.752Z,98.69
2018-05-14T00:15:13.629Z,98.69
2018-05-14T00:16:13.503Z,98.60
2018-05-14T00:17:13.380Z,98.12
2018-05-14T00:18:13.250Z,97.17
2018-05-14T00:19:13.126Z,97.74
2018-05-14T00:20:13.001Z,97.27
2018-05-14T00:21:12.872Z,97.27
2018-05-14T00:22:12.749Z,97.03
2018-05-14T00:23:12.625Z,97.60
2018-05-14T00:24:12.500Z,97.50
2018-05-14T00:25:12.376Z,96.55
2018-05-14T00:26:12.246Z,96.65
2018-05-14T00:27:12.121Z,96.45
2018-05-14T00:28:11.998Z,96.84
2018-05-14T00:29:11.869Z,96.55
2018-05-14T00:30:11.745Z,95.32
2018-05-14T00:31:11.621Z,96.36
2018-05-14T00:32:11.496Z,96.36
2018-05-14T00:33:11.369Z,96.36
2018-05-14T00:34:11.242Z,96.79
2018-05-14T00:35:11.117Z,96.79
2018-05-14T00:36:10.992Z,97.27
2018-05-14T00:37:10.867Z,96.69
2018-05-14T00:38:10.739Z,97.55
2018-05-14T00:39:10.616Z,96.89
2018-05-14T00:40:10.488Z,96.45
2018-05-14T00:41:10.363Z,96.55
2018-05-14T00:42:10.240Z,96.74
2018-05-14T00:43:10.121Z,95.89
2018-05-14T00:44:09.997Z,97.45
2018-05-14T00:45:09.864Z,97.12
2018-05-14T00:46:09.736Z,97.17
2018-05-14T00:47:09.611Z,96.41
2018-05-14T00:48:09.486Z,97.27
2018-05-14T00:49:09.362Z,96.98
2018-05-14T00:50:09.237Z,97.27
2018-05-14T00:51:09.111Z,97.36
2018-05-14T00:52:08.984Z,95.79
2018-05-14T00:53:08.860Z,96.36
2018-05-14T00:54:08.735Z,96.74
2018-05-14T00:55:08.609Z,96.26
2018-05-14T00:56:08.484Z,96.65
2018-05-14T00:57:08.359Z,96.65
2018-05-14T00:58:08.233Z,97.03
2018-05-14T00:59:08.109Z,96.65
2018-05-14T01:00:07.982Z,96.84
2018-05-14T01:01:07.858Z,96.74
2018-05-14T01:02:07.732Z,97.03
2018-05-14T01:03:07.605Z,96.65
2018-05-14T01:04:07.480Z,96.08
2018-05-14T01:05:07.355Z,95.89
2018-05-14T01:06:07.231Z,95.98
2018-05-14T01:07:07.106Z,95.22
2018-05-14T01:08:06.978Z,94.56
2018-05-14T01:09:06.853Z,95.41
2018-05-14T01:10:06.731Z,95.12
2018-05-14T01:11:06.603Z,95.89
2018-05-14T01:12:06.475Z,95.22
2018-05-14T01:13:06.352Z,95.03
2018-05-14T01:14:06.225Z,95.22
2018-05-14T01:15:06.099Z,95.51
2018-05-14T01:16:05.972Z,94.93
2018-05-14T01:17:05.847Z,94.93
2018-05-14T01:18:05.724Z,95.22
2018-05-14T01:19:05.594Z,94.93
2018-05-14T01:20:05.470Z,94.65
2018-05-14T01:21:05.340Z,94.74
2018-05-14T01:22:05.217Z,94.74
2018-05-14T01:23:05.092Z,95.03
2018-05-14T01:24:04.968Z,94.46
2018-05-14T01:25:04.840Z,95.60
2018-05-14T01:26:04.719Z,94.46
2018-05-14T01:27:04.590Z,94.93
2018-05-14T01:28:04.473Z,94.46
2018-05-14T01:29:04.336Z,94.56
2018-05-14T01:30:04.211Z,94.08
2018-05-14T01:31:04.087Z,94.65
2018-05-14T01:32:03.958Z,95.03
2018-05-14T01:33:03.834Z,94.74
2018-05-14T01:34:03.710Z,94.74
2018-05-14T01:35:03.583Z,94.56
2018-05-14T01:36:03.460Z,94.18
2018-05-14T01:37:03.331Z,93.79
2018-05-14T01:38:03.213Z,93.79
2018-05-14T01:39:03.079Z,94.08
2018-05-14T01:40:02.956Z,94.65
2018-05-14T01:41:02.832Z,94.46
2018-05-14T01:42:02.705Z,95.03
2018-05-14T01:43:02.579Z,94.56
2018-05-14T01:44:02.456Z,93.89
2018-05-14T01:45:02.328Z,93.89
2018-05-14T01:46:02.205Z,93.99
2018-05-14T01:47:02.075Z,93.32
2018-05-14T01:48:01.951Z,93.41
2018-05-14T01:49:01.831Z,92.18
2018-05-14T01:50:01.701Z,93.46
2018-05-14T01:51:01.578Z,92.90
2018-05-14T01:52:01.448Z,91.75
2018-05-14T01:53:01.324Z,91.09
2018-05-14T01:54:01.195Z,91.19
2018-05-14T01:55:01.075Z,90.99
2018-05-14T01:56:00.943Z,89.67
2018-05-14T01:57:00.818Z,90.71
2018-05-14T01:58:00.692Z,90.42
2018-05-14T01:59:00.569Z,89.95
2018-05-14T02:00:00.442Z,89.86
2018-05-14T02:01:00.316Z,89.38
2018-05-14T02:02:00.190Z,89.38
2018-05-14T02:03:00.066Z,90.99
2018-05-14T02:03:59.936Z,90.71
2018-05-14T02:04:59.810Z,91.56
2018-05-14T02:05:59.692Z,92.13
2018-05-14T02:06:59.561Z,92.18
2018-05-14T02:07:59.436Z,92.94
2018-05-14T02:08:59.309Z,92.75
2018-05-14T02:09:59.182Z,92.75
2018-05-14T02:10:59.061Z,92.94
2018-05-14T02:11:58.934Z,92.94
2018-05-14T02:12:58.806Z,92.85
2018-05-14T02:13:58.682Z,92.75
2018-05-14T02:14:58.555Z,93.51
2018-05-14T02:15:58.428Z,93.99
2018-05-14T02:16:58.305Z,93.99
2018-05-14T02:17:58.184Z,94.93
2018-05-14T02:18:58.060Z,92.66
2018-05-14T02:19:57.927Z,93.23
2018-05-14T02:20:57.800Z,92.37
2018-05-14T02:21:57.675Z,92.56
2018-05-14T02:22:57.549Z,90.56
2018-05-14T02:23:57.428Z,90.75
2018-05-14T02:24:57.299Z,89.90
2018-05-14T02:25:57.173Z,89.52
2018-05-14T02:26:57.047Z,89.33
2018-05-14T02:27:56.922Z,86.95
2018-05-14T02:28:56.796Z,84.82
2018-05-14T02:29:56.675Z,84.16
2018-05-14T02:30:56.546Z,84.63
2018-05-14T02:31:56.421Z,84.25
2018-05-14T02:32:56.294Z,84.91
2018-05-14T02:33:56.171Z,84.91
2018-05-14T02:34:56.046Z,86.63
2018-05-14T02:35:55.917Z,85.86
2018-05-14T02:36:55.792Z,87.86
2018-05-14T02:37:55.668Z,87.71
2018-05-14T02:38:55.545Z,88.28
2018-05-14T02:39:55.415Z,88.47
2018-05-14T02:40:55.292Z,86.10
2018-05-14T02:41:55.164Z,86.10
2018-05-14T02:42:55.040Z,84.95
2018-05-14T02:43:54.916Z,82.58
2018-05-14T02:44:54.789Z,82.82
2018-05-14T02:45:54.663Z,83.78
2018-05-14T02:46:54.540Z,82.54
2018-05-14T02:47:54.415Z,83.78
2018-05-14T02:48:54.289Z,83.01
2018-05-14T02:49:54.161Z,85.30
2018-05-14T02:50:54.036Z,86.67
2018-05-14T02:51:53.909Z,86.00
2018-05-14T02:52:53.782Z,86.86
2018-05-14T02:53:53.658Z,86.29
2018-05-14T02:54:53.536Z,84.20
2018-05-14T02:55:53.409Z,83.82
2018-05-14T02:56:53.286Z,84.01
2018-05-14T02:57:53.157Z,84.67
2018-05-14T02:58:53.031Z,84.29
2018-05-14T02:59:52.912Z,84.29
2018-05-14T03:00:52.783Z,84.20
2018-05-14T03:01:52.656Z,84.39
2018-05-14T03:02:52.533Z,83.62
2018-05-14T03:03:52.402Z,83.82
2018-05-14T03:04:52.291Z,83.91
2018-05-14T03:05:52.151Z,84.01
2018-05-14T03:06:52.039Z,83.82
2018-05-14T03:07:51.900Z,84.10
2018-05-14T03:08:51.785Z,84.10
2018-05-14T03:09:51.648Z,83.15
2018-05-14T03:10:51.526Z,82.29
2018-05-14T03:11:51.395Z,81.44
2018-05-14T03:12:51.271Z,82.01
2018-05-14T03:13:51.148Z,81.12
2018-05-14T03:14:51.021Z,79.97
2018-05-14T03:15:50.897Z,80.16
2018-05-14T03:16:50.768Z,79.31
2018-05-14T03:17:50.643Z,79.88
2018-05-14T03:18:50.515Z,78.83
2018-05-14T03:19:50.390Z,79.50
2018-05-14T03:20:50.264Z,79.22
2018-05-14T03:21:50.137Z,79.50
2018-05-14T03:22:50.013Z,79.31
2018-05-14T03:23:49.882Z,81.12
2018-05-14T03:24:49.756Z,80.64
2018-05-14T03:25:49.635Z,79.83
2018-05-14T03:26:49.512Z,79.88
2018-05-14T03:27:49.379Z,79.54
2018-05-14T03:28:49.255Z,79.88
2018-05-14T03:29:49.128Z,79.92
2018-05-14T03:30:49.004Z,79.44
2018-05-14T03:31:48.875Z,79.35
2018-05-14T03:32:48.751Z,78.88
2018-05-14T03:33:48.623Z,77.89
2018-05-14T03:34:48.501Z,77.79
2018-05-14T03:35:48.372Z,77.36
2018-05-14T03:36:48.248Z,76.46
2018-05-14T03:37:48.125Z,76.56
2018-05-14T03:38:47.997Z,76.46
2018-05-14T03:39:47.871Z,76.27
2018-05-14T03:40:47.744Z,77.79
2018-05-14T03:41:47.616Z,77.22
2018-05-14T03:42:47.492Z,76.65
2018-05-14T03:43:47.365Z,76.08
2018-05-14T03:44:47.240Z,76.56
2018-05-14T03:45:47.114Z,76.46
2018-05-14T03:46:46.988Z,75.42
2018-05-14T03:47:46.862Z,75.42
2018-05-14T03:48:46.735Z,76.37
2018-05-14T03:49:46.612Z,76.46
2018-05-14T03:50:46.486Z,77.22
2018-05-14T03:51:46.359Z,76.46
2018-05-14T03:52:46.235Z,75.60
2018-05-14T03:53:46.105Z,74.18
2018-05-14T03:54:45.983Z,74.37
2018-05-14T03:55:45.858Z,71.14
2018-05-14T03:56:45.735Z,67.79
2018-05-14T03:57:45.607Z,65.98
2018-05-14T03:58:45.479Z,64.65
2018-05-14T03:59:45.363Z,65.12
2018-05-14T04:00:45.229Z,65.88
2018-05-14T04:01:45.101Z,65.44
2018-05-14T04:02:44.976Z,65.50
2018-05-14T04:03:44.850Z,66.08
2018-05-14T04:04:44.724Z,66.96
2018-05-14T04:05:44.599Z,68.77
2018-05-14T04:06:44.471Z,69.53
2018-05-14T04:07:44.348Z,69.91
2018-05-14T04:08:44.219Z,70.67
2018-05-14T04:09:44.095Z,71.23
2018-05-14T04:10:43.969Z,71.33
2018-05-14T04:11:43.842Z,71.04
2018-05-14T04:12:43.714Z,71.23
2018-05-14T04:13:43.592Z,72.38
2018-05-14T04:14:43.463Z,72.56
2018-05-14T04:15:43.340Z,72.28
2018-05-14T04:16:43.212Z,73.14
2018-05-14T04:17:43.087Z,72.09
2018-05-14T04:18:42.961Z,70.86
2018-05-14T04:19:42.835Z,70.95
2018-05-14T04:20:42.712Z,70.38
2018-05-14T04:21:42.583Z,70.19
2018-05-14T04:22:42.460Z,71.04
2018-05-14T04:23:42.333Z,72.47
2018-05-14T04:24:42.205Z,72.38
2018-05-14T04:25:42.081Z,71.23
2018-05-14T04:26:41.953Z,69.81
2018-05-14T04:27:41.828Z,71.43
2018-05-14T04:28:41.714Z,70.29
2018-05-14T04:29:41.577Z,70.57
2018-05-14T04:30:41.449Z,70.19
2018-05-14T04:31:41.324Z,70.86
2018-05-14T04:32:41.199Z,71.33
2018-05-14T04:33:41.071Z,71.23
2018-05-14T04:34:40.949Z,71.23
2018-05-14T04:35:40.820Z,72.38
2018-05-14T04:36:40.693Z,73.61
2018-05-14T04:37:40.570Z,74.60
2018-05-14T04:38:40.442Z,75.07
2018-05-14T04:39:40.319Z,74.31
2018-05-14T04:40:40.191Z,75.07
2018-05-14T04:41:40.067Z,75.64
2018-05-14T04:42:39.941Z,75.26
2018-05-14T04:43:39.813Z,74.51
2018-05-14T04:44:39.688Z,74.41
2018-05-14T04:45:39.562Z,73.65
2018-05-14T04:46:39.439Z,71.66
2018-05-14T04:47:39.310Z,71.04
2018-05-14T04:48:39.185Z,71.81
2018-05-14T04:49:39.059Z,72.66
2018-05-14T04:50:38.932Z,70.67
2018-05-14T04:51:38.805Z,71.23
2018-05-14T04:52:38.680Z,71.71
2018-05-14T04:53:38.556Z,71.23
2018-05-14T04:54:38.428Z,70.86
2018-05-14T04:55:38.304Z,70.95
2018-05-14T04:56:38.178Z,68.58
2018-05-14T04:57:38.056Z,69.71
2018-05-14T04:58:37.927Z,69.53
2018-05-14T04:59:37.801Z,68.67
2018-05-14T05:00:37.676Z,68.96
2018-05-14T05:01:37.551Z,68.77
2018-05-14T05:02:37.426Z,69.53
2018-05-14T05:03:37.297Z,68.39
2018-05-14T05:04:37.176Z,68.10
2018-05-14T05:05:37.045Z,68.96
2018-05-14T05:06:36.925Z,68.01
2018-05-14T05:07:36.796Z,69.09
2018-05-14T05:08:36.672Z,69.75
2018-05-14T05:09:36.597Z,69.27
2018-05-14T05:10:36.419Z,68.80
2018-05-14T05:11:36.397Z,69.56
2018-05-14T05:12:36.167Z,69.18
2018-05-14T05:13:36.041Z,69.66
2018-05-14T05:14:35.917Z,69.09
2018-05-14T05:15:35.793Z,68.90
2018-05-14T05:16:35.666Z,69.94
2018-05-14T05:17:35.538Z,70.04
2018-05-14T05:18:35.416Z,69.46
2018-05-14T05:19:35.286Z,68.23
2018-05-14T05:20:35.162Z,69.56
2018-05-14T05:21:35.038Z,69.46
2018-05-14T05:22:34.910Z,69.66
2018-05-14T05:23:34.785Z,70.04
2018-05-14T05:24:34.659Z,68.71
2018-05-14T05:25:34.534Z,68.33
2018-05-14T05:26:34.412Z,67.00
2018-05-14T05:27:34.283Z,65.86
2018-05-14T05:28:34.155Z,65.86
2018-05-14T05:29:34.031Z,65.86
2018-05-14T05:30:33.904Z,65.76
2018-05-14T05:31:33.779Z,65.28
2018-05-14T05:32:33.653Z,65.67
2018-05-14T05:33:33.527Z,65.67
2018-05-14T05:34:33.418Z,65.95
2018-05-14T05:35:33.282Z,65.76
2018-05-14T05:36:33.151Z,64.24
2018-05-14T05:37:33.024Z,65.28
2018-05-14T05:38:32.897Z,62.43
2018-05-14T05:39:32.772Z,60.53
2018-05-14T05:40:32.650Z,60.06
2018-05-14T05:41:32.521Z,57.84
2018-05-14T05:42:32.397Z,57.68
2018-05-14T05:43:32.274Z,56.13
2018-05-14T05:44:32.145Z,54.71
2018-05-14T05:45:32.021Z,53.47
2018-05-14T05:46:31.891Z,53.38
2018-05-14T05:47:31.767Z,51.76
2018-05-14T05:48:31.639Z,50.91
2018-05-14T05:49:31.513Z,49.29
2018-05-14T05:50:31.388Z,48.44
2018-05-14T05:51:31.259Z,47.39
2018-05-14T05:52:31.228Z,46.06
2018-05-14T05:53:31.010Z,45.87
2018-05-14T05:54:30.881Z,45.31
2018-05-14T05:55:30.756Z,47.02
2018-05-14T05:56:30.630Z,47.39
2018-05-14T05:57:30.503Z,47.49
2018-05-14T05:58:30.411Z,48.35
2018-05-14T05:59:30.251Z,48.16
2018-05-14T06:00:30.126Z,46.06
2018-05-14T06:01:30.000Z,43.69
2018-05-14T06:02:29.876Z,43.52
2018-05-14T06:03:29.746Z,44.67
2018-05-14T06:04:29.621Z,46.19
2018-05-14T06:05:29.496Z,47.23
2018-05-14T06:06:29.368Z,48.18
2018-05-14T06:07:29.242Z,50.18
2018-05-14T06:08:29.118Z,50.74
2018-05-14T06:09:29.015Z,52.84
2018-05-14T06:10:28.870Z,50.84
2018-05-14T06:11:28.742Z,52.64
2018-05-14T06:12:28.613Z,52.36
2018-05-14T06:13:28.488Z,51.82
2018-05-14T06:14:28.362Z,55.15
2018-05-14T06:15:28.252Z,56.95
2018-05-14T06:16:28.109Z,56.38
2018-05-14T06:17:27.985Z,53.59
2018-05-14T06:18:27.858Z,50.93
2018-05-14T06:19:27.734Z,51.70
2018-05-14T06:20:27.610Z,51.70
2018-05-14T06:21:27.482Z,51.79
2018-05-14T06:22:27.444Z,49.79
2018-05-14T06:23:27.232Z,50.93
2018-05-14T06:24:27.104Z,53.22
2018-05-14T06:25:26.984Z,54.07
2018-05-14T06:26:26.854Z,53.03
2018-05-14T06:27:26.729Z,53.59
2018-05-14T06:28:26.605Z,53.41
2018-05-14T06:29:26.481Z,55.90
2018-05-14T06:30:26.353Z,59.05
2018-05-14T06:31:26.226Z,59.14
2018-05-14T06:32:26.101Z,59.33
2018-05-14T06:33:25.978Z,63.23
2018-05-14T06:34:25.849Z,62.27
2018-05-14T06:35:25.729Z,68.46
2018-05-14T06:36:25.599Z,71.78
2018-05-14T06:37:25.476Z,74.54
2018-05-14T06:38:25.347Z,73.40
2018-05-14T06:39:25.246Z,74.73
2018-05-14T06:40:25.098Z,77.68
2018-05-14T06:41:24.973Z,71.31
2018-05-14T06:42:24.896Z,68.93
2018-05-14T06:43:24.720Z,68.27
2018-05-14T06:44:24.671Z,68.27
2018-05-14T06:45:24.470Z,67.79
2018-05-14T06:46:24.345Z,68.74
2018-05-14T06:47:24.217Z,68.84
2018-05-14T06:48:24.096Z,68.55
2018-05-14T06:49:23.968Z,65.22
2018-05-14T06:50:23.846Z,66.55
2018-05-14T06:51:23.719Z,68.84
2018-05-14T06:52:23.594Z,67.50
2018-05-14T06:53:23.473Z,65.80
2018-05-14T06:54:23.340Z,65.22
2018-05-14T06:55:23.217Z,65.03
2018-05-14T06:56:23.091Z,66.36
2018-05-14T06:57:22.968Z,65.89
2018-05-14T06:58:22.844Z,67.03
2018-05-14T06:59:22.715Z,66.17
2018-05-14T07:00:22.593Z,62.75
2018-05-14T07:01:22.465Z,63.42
2018-05-14T07:02:22.340Z,61.52
2018-05-14T07:03:22.215Z,64.18
2018-05-14T07:04:22.090Z,65.13
2018-05-14T07:05:21.962Z,64.56
2018-05-14T07:06:21.839Z,64.46
2018-05-14T07:07:21.714Z,61.99
2018-05-14T07:08:21.590Z,61.61
2018-05-14T07:09:21.466Z,60.38
2018-05-14T07:10:21.337Z,60.47
2018-05-14T07:11:21.214Z,63.13
2018-05-14T07:12:21.088Z,62.94
2018-05-14T07:13:20.962Z,62.65
2018-05-14T07:14:20.836Z,62.59
2018-05-14T07:15:20.723Z,62.88
2018-05-14T07:16:20.584Z,61.93
2018-05-14T07:17:20.467Z,62.69
2018-05-14T07:18:20.337Z,64.21
2018-05-14T07:19:20.295Z,67.63
2018-05-14T07:20:20.084Z,69.06
2018-05-14T07:21:19.962Z,68.11
2018-05-14T07:22:19.837Z,67.44
2018-05-14T07:23:19.712Z,70.77
2018-05-14T07:24:19.587Z,70.39
2018-05-14T07:25:19.462Z,68.01
2018-05-14T07:26:19.339Z,69.92
2018-05-14T07:27:19.212Z,71.15
2018-05-14T07:28:19.088Z,72.58
2018-05-14T07:29:18.964Z,69.44
2018-05-14T07:30:18.841Z,70.49
2018-05-14T07:31:18.710Z,70.97
2018-05-14T07:32:18.588Z,68.87
2018-05-14T07:33:18.462Z,70.52
2018-05-14T07:34:18.337Z,74.58
2018-05-14T07:35:18.212Z,74.87
2018-05-14T07:36:18.088Z,72.30
2018-05-14T07:37:17.964Z,73.06
2018-05-14T07:38:17.838Z,77.91
2018-05-14T07:39:17.715Z,79.91
2018-05-14T07:40:17.590Z,75.91
2018-05-14T07:41:17.463Z,80.86
2018-05-14T07:42:17.339Z,77.72
2018-05-14T07:43:17.215Z,77.66
2018-05-14T07:44:17.092Z,82.86
2018-05-14T07:45:16.965Z,81.52
2018-05-14T07:46:16.841Z,76.48
2018-05-14T07:47:16.716Z,75.81
2018-05-14T07:48:16.591Z,76.20
2018-05-14T07:49:16.466Z,71.53
2018-05-14T07:50:16.341Z,73.57
2018-05-14T07:51:16.219Z,75.95
2018-05-14T07:52:16.093Z,77.76
2018-05-14T07:53:15.965Z,77.85
2018-05-14T07:54:15.844Z,77.85
2018-05-14T07:55:15.716Z,78.71
2018-05-14T07:56:15.593Z,79.09
2018-05-14T07:57:15.470Z,76.90
2018-05-14T07:58:15.345Z,76.90
2018-05-14T07:59:15.220Z,75.38
2018-05-14T08:00:15.191Z,74.99
2018-05-14T08:01:14.973Z,74.14
2018-05-14T08:02:14.847Z,74.43
2018-05-14T08:03:14.723Z,76.23
2018-05-14T08:04:14.596Z,72.14
2018-05-14T08:05:14.472Z,77.66
2018-05-14T08:06:14.349Z,77.95
2018-05-14T08:07:14.224Z,76.61
2018-05-14T08:08:14.101Z,79.85
2018-05-14T08:09:13.976Z,79.51
2018-05-14T08:10:13.852Z,74.27
2018-05-14T08:11:13.726Z,80.27
2018-05-14T08:12:13.601Z,81.79
2018-05-14T08:13:13.481Z,77.80
2018-05-14T08:14:13.354Z,86.75
2018-05-14T08:15:13.228Z,85.84
2018-05-14T08:16:13.106Z,76.94
2018-05-14T08:17:12.980Z,78.75
2018-05-14T08:18:12.859Z,75.60
2018-05-14T08:19:12.734Z,80.08
2018-05-14T08:20:12.608Z,79.13
2018-05-14T08:21:12.483Z,69.93
2018-05-14T08:22:12.360Z,64.69
2018-05-14T08:23:12.237Z,77.59
2018-05-14T08:24:12.113Z,83.97
2018-05-14T08:25:11.990Z,83.88
2018-05-14T08:26:11.866Z,81.63
2018-05-14T08:27:11.742Z,99.99
2018-05-14T08:28:11.619Z,87.50
2018-05-14T08:29:11.498Z,90.26
2018-05-14T08:30:11.373Z,99.41
2018-05-14T08:31:11.249Z,85.69
2018-05-14T08:32:11.128Z,88.17
2018-05-14T08:33:11.003Z,94.37
2018-05-14T08:34:10.879Z,89.12
2018-05-14T08:35:10.756Z,92.93
2018-05-14T08:36:10.634Z,92.36
2018-05-14T08:37:10.555Z,99.22
2018-05-14T08:38:10.389Z,92.22
2018-05-14T08:39:10.270Z,88.31
2018-05-14T08:40:10.149Z,97.99
2018-05-14T08:41:10.019Z,94.17
2018-05-14T08:42:09.896Z,95.12
2018-05-14T08:43:09.772Z,99.99
2018-05-14T08:44:09.651Z,94.36
2018-05-14T08:45:09.525Z,95.22
2018-05-14T08:46:09.405Z,98.37
2018-05-14T08:47:09.280Z,99.99
2018-05-14T08:48:09.159Z,99.99
2018-05-14T08:49:09.037Z,99.99
2018-05-14T08:50:08.914Z,99.99
2018-05-14T08:51:08.789Z,99.99
2018-05-14T08:52:08.675Z,99.99
2018-05-14T08:53:08.549Z,99.99
2018-05-14T08:54:08.524Z,98.27
2018-05-14T08:55:08.299Z,99.90
2018-05-14T08:56:08.179Z,99.99
2018-05-14T08:57:08.057Z,98.27
2018-05-14T08:58:07.933Z,99.99
2018-05-14T08:59:07.811Z,97.03
2018-05-14T09:00:07.686Z,97.80
2018-05-14T09:01:07.565Z,98.71
2018-05-14T09:02:07.443Z,99.99
2018-05-14T09:03:07.319Z,99.99
2018-05-14T09:04:07.195Z,98.03
2018-05-14T09:05:07.074Z,99.99
2018-05-14T09:06:06.953Z,99.99
2018-05-14T09:07:06.829Z,99.99
2018-05-14T09:08:06.708Z,99.99
2018-05-14T09:09:06.586Z,99.99
2018-05-14T09:10:06.465Z,99.99
2018-05-14T09:11:06.342Z,99.99
2018-05-14T09:12:06.219Z,99.99
2018-05-14T09:13:06.103Z,99.99
2018-05-14T09:14:05.981Z,99.99
2018-05-14T09:15:05.852Z,99.99
2018-05-14T09:16:05.731Z,99.99
2018-05-14T09:17:05.607Z,99.99
2018-05-14T09:18:05.487Z,99.99
2018-05-14T09:19:05.367Z,99.99
2018-05-14T09:20:05.240Z,99.99
2018-05-14T09:21:05.122Z,99.99
2018-05-14T09:22:04.996Z,99.99
2018-05-14T09:23:04.875Z,99.99
2018-05-14T09:24:04.753Z,99.99
2018-05-14T09:25:04.629Z,99.99
2018-05-14T09:26:04.509Z,99.99
2018-05-14T09:27:04.387Z,99.99
2018-05-14T09:28:04.271Z,99.99
2018-05-14T09:29:04.142Z,99.99
2018-05-14T09:30:04.022Z,99.99
2018-05-14T09:31:03.902Z,99.99
2018-05-14T09:32:03.777Z,99.99
2018-05-14T09:33:03.656Z,99.99
2018-05-14T09:34:03.536Z,99.99
2018-05-14T09:35:03.411Z,99.99
2018-05-14T09:36:03.289Z,99.99
2018-05-14T09:37:03.170Z,99.99
2018-05-14T09:38:03.046Z,99.99
2018-05-14T09:39:02.925Z,99.99
2018-05-14T09:40:02.805Z,99.99
2018-05-14T09:41:02.685Z,99.99
2018-05-14T09:42:02.563Z,99.99
2018-05-14T09:43:02.441Z,99.99
2018-05-14T09:44:02.317Z,99.99
2018-05-14T09:45:02.201Z,99.99
2018-05-14T09:46:02.081Z,99.99
2018-05-14T09:47:01.954Z,99.99
2018-05-14T09:48:02.005Z,99.99
2018-05-14T09:49:01.722Z,99.99
2018-05-14T09:50:01.595Z,99.99
2018-05-14T09:51:01.472Z,99.99
2018-05-14T09:52:01.351Z,99.99
2018-05-14T09:53:01.231Z,99.99
2018-05-14T09:54:01.108Z,99.99
2018-05-14T09:55:00.986Z,99.99
2018-05-14T09:56:00.867Z,99.99
2018-05-14T09:57:00.746Z,99.99
2018-05-14T09:58:00.626Z,99.99
2018-05-14T09:59:00.506Z,99.99
2018-05-14T10:00:00.382Z,99.99
2018-05-14T10:01:00.264Z,99.99
2018-05-14T10:02:00.139Z,99.99
2018-05-14T10:03:00.017Z,99.99
2018-05-14T10:03:59.897Z,99.99
2018-05-14T10:04:59.777Z,99.99
2018-05-14T10:05:59.658Z,99.99
2018-05-14T10:06:59.533Z,99.58
2018-05-14T10:07:59.411Z,98.62
2018-05-14T10:08:59.292Z,90.09
2018-05-14T10:09:59.174Z,96.99
2018-05-14T10:10:59.048Z,98.33
2018-05-14T10:11:58.928Z,96.80
2018-05-14T10:12:58.894Z,99.10
2018-05-14T10:13:58.688Z,98.24
2018-05-14T10:14:58.569Z,99.33
2018-05-14T10:15:58.446Z,98.99
2018-05-14T10:16:58.327Z,99.99
2018-05-14T10:17:58.211Z,99.99
2018-05-14T10:18:58.089Z,99.99
2018-05-14T10:19:58.208Z,99.99
2018-05-14T10:20:57.845Z,99.99
2018-05-14T10:21:57.722Z,99.99
2018-05-14T10:22:57.608Z,99.99
2018-05-14T10:23:57.483Z,99.99
2018-05-14T10:24:57.363Z,99.99
2018-05-14T10:25:57.241Z,99.99
2018-05-14T10:26:57.120Z,99.99
2018-05-14T10:27:56.997Z,99.99
2018-05-14T10:28:56.876Z,99.99
2018-05-14T10:29:56.757Z,99.99
2018-05-14T10:30:56.635Z,99.99
2018-05-14T10:31:56.588Z,99.99
2018-05-14T10:32:56.393Z,99.99
2018-05-14T10:33:56.271Z,99.99
2018-05-14T10:34:56.152Z,97.61
2018-05-14T10:35:56.034Z,99.99
2018-05-14T10:36:55.916Z,99.99
2018-05-14T10:37:55.792Z,99.99
2018-05-14T10:38:55.668Z,99.67
2018-05-14T10:39:55.549Z,98.52
2018-05-14T10:40:55.429Z,98.14
2018-05-14T10:41:55.311Z,98.61
2018-05-14T10:42:55.186Z,95.79
2018-05-14T10:43:55.069Z,94.36
2018-05-14T10:44:54.946Z,93.98
2018-05-14T10:45:54.828Z,97.28
2018-05-14T10:46:54.707Z,99.99
2018-05-14T10:47:54.582Z,99.99
2018-05-14T10:48:54.466Z,99.99
2018-05-14T10:49:54.347Z,99.99
2018-05-14T10:50:54.223Z,99.99
2018-05-14T10:51:54.105Z,99.99
2018-05-14T10:52:53.988Z,99.99
2018-05-14T10:53:53.861Z,99.99
2018-05-14T10:54:53.740Z,99.99
2018-05-14T10:55:53.620Z,99.99
2018-05-14T10:56:53.498Z,99.99
2018-05-14T10:57:53.377Z,99.99
2018-05-14T10:58:53.255Z,99.99
2018-05-14T10:59:53.133Z,99.99
2018-05-14T11:00:53.013Z,99.99
2018-05-14T11:01:52.895Z,99.99
2018-05-14T11:02:52.770Z,99.99
2018-05-14T11:03:52.673Z,99.99
2018-05-14T11:04:52.525Z,99.99
2018-05-14T11:05:52.406Z,99.99
2018-05-14T11:06:52.283Z,99.99
2018-05-14T11:07:52.161Z,99.99
2018-05-14T11:08:52.039Z,99.99
2018-05-14T11:09:51.917Z,99.99
2018-05-14T11:10:51.798Z,99.99
2018-05-14T11:11:51.674Z,98.52
2018-05-14T11:12:51.553Z,99.99
2018-05-14T11:13:51.433Z,99.99
2018-05-14T11:14:51.311Z,99.99
2018-05-14T11:15:51.190Z,99.99
2018-05-14T11:16:51.069Z,99.99
2018-05-14T11:17:50.948Z,99.99
2018-05-14T11:18:50.853Z,99.99
2018-05-14T11:19:50.703Z,99.99
2018-05-14T11:20:50.582Z,99.99
2018-05-14T11:21:50.463Z,99.99
2018-05-14T11:22:50.338Z,99.99
2018-05-14T11:23:50.220Z,99.99
2018-05-14T11:24:50.098Z,99.99
2018-05-14T11:25:49.977Z,99.99
2018-05-14T11:26:49.855Z,99.99
2018-05-14T11:27:49.744Z,99.29
2018-05-14T11:28:49.616Z,97.23
2018-05-14T11:29:49.493Z,99.67
2018-05-14T11:30:49.372Z,99.99
2018-05-14T11:31:49.258Z,99.99
2018-05-14T11:32:49.134Z,99.99
2018-05-14T11:33:49.015Z,99.99
2018-05-14T11:34:48.895Z,99.99
2018-05-14T11:35:48.774Z,99.99
2018-05-14T11:36:48.654Z,99.99
2018-05-14T11:37:48.531Z,99.99
2018-05-14T11:38:48.412Z,99.99
2018-05-14T11:39:48.294Z,99.99
2018-05-14T11:40:48.176Z,99.99
2018-05-14T11:41:48.052Z,99.99
2018-05-14T11:42:47.930Z,99.99
2018-05-14T11:43:47.820Z,97.80
2018-05-14T11:44:47.692Z,99.10
2018-05-14T11:45:47.577Z,96.75
2018-05-14T11:46:47.447Z,99.99
2018-05-14T11:47:47.327Z,99.99
2018-05-14T11:48:47.208Z,99.99
2018-05-14T11:49:47.093Z,99.99
2018-05-14T11:50:47.046Z,99.67
2018-05-14T11:51:46.853Z,97.90
2018-05-14T11:52:46.731Z,97.42
2018-05-14T11:53:46.610Z,93.02
2018-05-14T11:54:46.490Z,93.02
2018-05-14T11:55:46.372Z,95.51
2018-05-14T11:56:46.279Z,92.10
2018-05-14T11:57:46.136Z,95.12
2018-05-14T11:58:46.013Z,95.17
2018-05-14T11:59:45.894Z,97.09
2018-05-14T12:00:45.777Z,98.19
2018-05-14T12:01:45.658Z,99.99
2018-05-14T12:02:45.614Z,99.99
2018-05-14T12:03:45.421Z,99.99
2018-05-14T12:04:45.304Z,99.99
2018-05-14T12:05:45.185Z,99.99
2018-05-14T12:06:45.063Z,99.99
2018-05-14T12:07:44.940Z,98.13
2018-05-14T12:08:44.820Z,99.99
2018-05-14T12:09:44.701Z,98.85
2018-05-14T12:10:44.580Z,98.04
2018-05-14T12:11:44.462Z,99.99
2018-05-14T12:12:44.340Z,98.90
2018-05-14T12:13:44.220Z,99.99
2018-05-14T12:14:44.099Z,98.90
2018-05-14T12:15:43.979Z,99.99
2018-05-14T12:16:43.859Z,99.99
2018-05-14T12:17:43.738Z,99.99
2018-05-14T12:18:43.618Z,99.99
2018-05-14T12:19:43.499Z,99.99
2018-05-14T12:20:43.380Z,99.99
2018-05-14T12:21:43.258Z,99.99
2018-05-14T12:22:43.134Z,99.62
2018-05-14T12:23:43.013Z,99.99
2018-05-14T12:24:42.895Z,98.03
2018-05-14T12:25:42.832Z,99.95
2018-05-14T12:26:42.652Z,99.99
2018-05-14T12:27:42.533Z,98.90
2018-05-14T12:28:42.407Z,97.99
2018-05-14T12:29:42.289Z,97.61
2018-05-14T12:30:42.165Z,98.08
2018-05-14T12:31:42.045Z,94.74
2018-05-14T12:32:41.924Z,99.13
2018-05-14T12:33:41.802Z,97.51
2018-05-14T12:34:41.680Z,97.89
2018-05-14T12:35:41.560Z,98.90
2018-05-14T12:36:41.436Z,99.47
2018-05-14T12:37:41.315Z,99.18
2018-05-14T12:38:41.193Z,98.37
2018-05-14T12:39:41.071Z,97.13
2018-05-14T12:40:40.949Z,95.12
2018-05-14T12:41:40.826Z,97.03
2018-05-14T12:42:40.710Z,97.22
2018-05-14T12:43:40.586Z,93.17
2018-05-14T12:44:40.459Z,92.79
2018-05-14T12:45:40.341Z,92.69
2018-05-14T12:46:40.214Z,92.07
2018-05-14T12:47:40.094Z,93.98
2018-05-14T12:48:39.971Z,89.40
2018-05-14T12:49:39.849Z,94.41
2018-05-14T12:50:39.726Z,87.87